Huvudsida
METAR-TAF:

METAR-TAF

Flygplatser :

Höga Kusten Airport

Kramfors, Sverige

latitud: 63-03N, longitud: 017-46E, höjd: 10 m

Aktuellt väderrapport

Denna rapport gjordes för 41 minuter sedan, klockan 04:20 UTC
Vind 2 kt från nord
Temperatur -2°C
Fuktighet 100%
Tryck 990 hPa
Sikt: 6000 m
lätt snö

METAR: ESNK 190420Z AUTO 35002KT 6000 -SN FEW004/// BKN025/// BKN033/// M02/M02 Q0990 RESHUP RESN

Tid: 06:01 (05:01 UTC)

Väderprognos

Denna rapport gjordes för 14 timmar och 31 minuter sedan, klockan 14:30 UTC
Prognos gäller från 18 kl. 15 UTC till 18 kl. 19 UTC
Vind 9 kt från väst/sydväst
Sikt 10 km eller mer
Inga moln under 1 500 m eller inga cumulonimbus

TAF: ESNK 181430Z 1815/1819 25009KT CAVOK

Aktuella väderrapporter och prognoser från 4000 flygplatser (METAR- och TAF-rapporter).

De tillgängliga stationerna syns som gula och röda prickar på kartan.

För musen över prickarna för att se namnen på stationerna.

Klicka sedan för att få väderrapporter och prognoser.

För att ändra kartan: Klicka på de gröna knapparna med ett svart kors på för att zooma in; den gröna knappen med ett streck på för att zooma ut; eller på de gröna pilarna för angränsande kartor.


METAR-TAF: